createdAt,value
2017-10-06T00:00:10.444Z,99.99
2017-10-06T00:01:10.448Z,99.99
2017-10-06T00:02:10.531Z,99.99
2017-10-06T00:03:10.576Z,99.99
2017-10-06T00:04:11.047Z,99.99
2017-10-06T00:05:10.751Z,99.99
2017-10-06T00:06:10.841Z,99.99
2017-10-06T00:07:10.768Z,99.99
2017-10-06T00:08:10.729Z,99.99
2017-10-06T00:09:11.357Z,99.99
2017-10-06T00:10:11.004Z,99.99
2017-10-06T00:11:11.156Z,99.99
2017-10-06T00:12:10.916Z,99.99
2017-10-06T00:13:10.998Z,99.99
2017-10-06T00:14:11.525Z,99.99
2017-10-06T00:15:11.186Z,99.99
2017-10-06T00:16:11.508Z,99.99
2017-10-06T00:17:11.205Z,99.99
2017-10-06T00:18:11.178Z,99.99
2017-10-06T00:19:11.559Z,99.99
2017-10-06T00:20:11.277Z,99.99
2017-10-06T00:21:11.427Z,99.99
2017-10-06T00:22:11.571Z,99.99
2017-10-06T00:23:11.817Z,99.99
2017-10-06T00:24:11.585Z,99.99
2017-10-06T00:25:11.524Z,99.99
2017-10-06T00:26:11.618Z,99.99
2017-10-06T00:27:12.295Z,99.99
2017-10-06T00:28:11.751Z,99.99
2017-10-06T00:29:11.991Z,99.99
2017-10-06T00:30:11.738Z,99.99
2017-10-06T00:31:12.331Z,99.99
2017-10-06T00:32:11.929Z,99.99
2017-10-06T00:33:11.886Z,99.99
2017-10-06T00:34:12.434Z,99.99
2017-10-06T00:35:12.221Z,99.99
2017-10-06T00:36:12.471Z,99.99
2017-10-06T00:37:12.707Z,99.99
2017-10-06T00:38:12.228Z,99.99
2017-10-06T00:39:12.386Z,99.99
2017-10-06T00:40:12.536Z,99.99
2017-10-06T00:41:12.532Z,99.99
2017-10-06T00:42:12.420Z,99.99
2017-10-06T00:43:12.588Z,99.99
2017-10-06T00:44:12.466Z,99.99
2017-10-06T00:45:12.879Z,99.99
2017-10-06T00:46:12.600Z,99.99
2017-10-06T00:47:12.669Z,99.99
2017-10-06T00:48:12.602Z,99.99
2017-10-06T00:49:12.786Z,99.99
2017-10-06T00:50:13.188Z,99.99
2017-10-06T00:51:13.299Z,99.99
2017-10-06T00:52:12.778Z,99.99
2017-10-06T00:53:13.074Z,99.99
2017-10-06T00:54:12.909Z,99.99
2017-10-06T00:55:13.388Z,99.99
2017-10-06T00:56:13.346Z,99.99
2017-10-06T00:57:13.057Z,99.99
2017-10-06T00:58:13.649Z,99.99
2017-10-06T00:59:13.301Z,99.99
2017-10-06T01:00:13.146Z,99.99
2017-10-06T01:01:13.347Z,99.99
2017-10-06T01:02:13.513Z,99.99
2017-10-06T01:03:13.499Z,99.99
2017-10-06T01:04:13.810Z,99.99
2017-10-06T01:05:13.489Z,99.99
2017-10-06T01:06:13.744Z,99.99
2017-10-06T01:07:13.534Z,99.99
2017-10-06T01:08:13.715Z,99.99
2017-10-06T01:09:13.969Z,99.99
2017-10-06T01:10:13.767Z,99.99
2017-10-06T01:11:13.715Z,99.99
2017-10-06T01:12:13.927Z,99.99
2017-10-06T01:13:14.022Z,99.99
2017-10-06T01:14:13.860Z,99.99
2017-10-06T01:15:13.886Z,99.99
2017-10-06T01:16:13.981Z,99.99
2017-10-06T01:17:14.067Z,99.99
2017-10-06T01:18:14.043Z,99.99
2017-10-06T01:19:14.119Z,99.99
2017-10-06T01:20:14.178Z,99.99
2017-10-06T01:21:14.715Z,99.99
2017-10-06T01:22:14.822Z,99.99
2017-10-06T01:23:14.988Z,99.99
2017-10-06T01:24:14.924Z,99.99
2017-10-06T01:25:14.965Z,99.99
2017-10-06T01:26:14.487Z,99.99
2017-10-06T01:27:15.187Z,99.99
2017-10-06T01:28:14.898Z,99.99
2017-10-06T01:29:14.746Z,99.99
2017-10-06T01:30:15.167Z,99.99
2017-10-06T01:31:14.792Z,99.99
2017-10-06T01:32:15.024Z,99.99
2017-10-06T01:33:14.822Z,99.99
2017-10-06T01:34:15.144Z,99.99
2017-10-06T01:35:14.961Z,99.99
2017-10-06T01:36:15.243Z,99.99
2017-10-06T01:37:15.262Z,99.99
2017-10-06T01:38:15.434Z,99.99
2017-10-06T01:39:15.133Z,99.99
2017-10-06T01:40:15.240Z,99.99
2017-10-06T01:41:15.344Z,99.99
2017-10-06T01:42:15.153Z,99.99
2017-10-06T01:43:15.580Z,99.99
2017-10-06T01:44:15.272Z,99.99
2017-10-06T01:45:15.284Z,99.99
2017-10-06T01:46:15.579Z,99.99
2017-10-06T01:47:15.742Z,99.99
2017-10-06T01:48:16.233Z,99.99
2017-10-06T01:49:15.651Z,99.99
2017-10-06T01:50:15.965Z,99.99
2017-10-06T01:51:15.657Z,99.99
2017-10-06T01:52:15.944Z,99.99
2017-10-06T01:53:15.986Z,99.99
2017-10-06T01:54:15.876Z,99.99
2017-10-06T01:55:15.775Z,99.99
2017-10-06T01:56:16.516Z,99.99
2017-10-06T01:57:16.244Z,99.99
2017-10-06T01:58:16.535Z,99.99
2017-10-06T01:59:16.634Z,99.99
2017-10-06T02:00:16.273Z,99.99
2017-10-06T02:01:16.113Z,99.99
2017-10-06T02:02:16.354Z,99.99
2017-10-06T02:03:16.742Z,99.99
2017-10-06T02:04:16.844Z,99.99
2017-10-06T02:05:16.901Z,99.99
2017-10-06T02:06:16.517Z,99.99
2017-10-06T02:07:16.886Z,99.99
2017-10-06T02:08:17.097Z,99.99
2017-10-06T02:09:17.027Z,99.99
2017-10-06T02:10:17.223Z,99.99
2017-10-06T02:11:16.813Z,99.99
2017-10-06T02:12:17.313Z,99.99
2017-10-06T02:13:17.010Z,99.99
2017-10-06T02:14:17.284Z,99.99
2017-10-06T02:15:17.154Z,99.99
2017-10-06T02:16:17.513Z,99.99
2017-10-06T02:17:17.440Z,99.99
2017-10-06T02:18:17.151Z,99.99
2017-10-06T02:19:17.290Z,99.99
2017-10-06T02:20:17.111Z,99.99
2017-10-06T02:21:17.108Z,99.99
2017-10-06T02:22:17.427Z,99.99
2017-10-06T02:23:17.121Z,99.99
2017-10-06T02:24:17.767Z,99.99
2017-10-06T02:25:17.452Z,99.99
2017-10-06T02:26:17.397Z,99.99
2017-10-06T02:27:17.478Z,99.99
2017-10-06T02:28:17.659Z,99.99
2017-10-06T02:29:17.788Z,99.99
2017-10-06T02:30:17.824Z,99.99
2017-10-06T02:31:17.479Z,99.99
2017-10-06T02:32:17.825Z,99.99
2017-10-06T02:33:17.569Z,99.99
2017-10-06T02:34:17.792Z,99.99
2017-10-06T02:35:17.682Z,99.99
2017-10-06T02:36:17.829Z,99.99
2017-10-06T02:37:18.231Z,99.99
2017-10-06T02:38:18.007Z,99.99
2017-10-06T02:39:18.372Z,99.99
2017-10-06T02:40:17.830Z,99.99
2017-10-06T02:41:18.070Z,99.99
2017-10-06T02:42:18.129Z,99.99
2017-10-06T02:43:18.079Z,99.99
2017-10-06T02:44:18.224Z,99.99
2017-10-06T02:45:18.647Z,99.99
2017-10-06T02:46:18.462Z,99.99
2017-10-06T02:47:18.506Z,99.99
2017-10-06T02:48:18.485Z,99.99
2017-10-06T02:49:18.742Z,99.99
2017-10-06T02:50:18.453Z,99.99
2017-10-06T02:51:18.421Z,99.99
2017-10-06T02:52:18.857Z,99.99
2017-10-06T02:53:18.747Z,99.99
2017-10-06T02:54:18.663Z,99.99
2017-10-06T02:55:18.832Z,99.99
2017-10-06T02:56:18.653Z,99.99
2017-10-06T02:57:18.833Z,99.99
2017-10-06T02:58:18.829Z,99.99
2017-10-06T02:59:19.019Z,99.99
2017-10-06T03:00:18.882Z,99.99
2017-10-06T03:01:19.065Z,99.99
2017-10-06T03:02:18.942Z,99.99
2017-10-06T03:03:18.981Z,99.99
2017-10-06T03:04:19.278Z,99.99
2017-10-06T03:05:19.315Z,99.99
2017-10-06T03:06:19.457Z,99.99
2017-10-06T03:07:19.146Z,99.99
2017-10-06T03:08:19.871Z,99.99
2017-10-06T03:09:19.481Z,99.99
2017-10-06T03:10:19.325Z,99.99
2017-10-06T03:11:19.740Z,99.99
2017-10-06T03:12:19.718Z,99.99
2017-10-06T03:13:19.450Z,99.99
2017-10-06T03:14:19.626Z,99.99
2017-10-06T03:15:19.858Z,99.99
2017-10-06T03:16:19.905Z,99.99
2017-10-06T03:17:19.663Z,99.99
2017-10-06T03:18:19.753Z,99.99
2017-10-06T03:19:19.857Z,99.99
2017-10-06T03:20:19.732Z,99.99
2017-10-06T03:21:19.892Z,99.99
2017-10-06T03:22:20.160Z,99.99
2017-10-06T03:23:19.871Z,99.99
2017-10-06T03:24:19.980Z,99.99
2017-10-06T03:25:20.053Z,99.99
2017-10-06T03:26:20.158Z,99.99
2017-10-06T03:27:20.757Z,99.99
2017-10-06T03:28:20.343Z,99.99
2017-10-06T03:29:20.238Z,99.99
2017-10-06T03:30:20.316Z,99.99
2017-10-06T03:31:20.436Z,99.99
2017-10-06T03:32:20.610Z,99.99
2017-10-06T03:33:20.121Z,99.99
2017-10-06T03:34:20.741Z,99.99
2017-10-06T03:35:20.699Z,99.99
2017-10-06T03:36:21.075Z,99.99
2017-10-06T03:37:20.912Z,99.99
2017-10-06T03:38:20.720Z,99.99
2017-10-06T03:39:21.276Z,99.99
2017-10-06T03:40:21.282Z,99.99
2017-10-06T03:41:21.374Z,99.99
2017-10-06T03:42:21.453Z,99.99
2017-10-06T03:43:21.513Z,99.99
2017-10-06T03:44:21.609Z,99.99
2017-10-06T03:45:21.452Z,99.99
2017-10-06T03:46:21.539Z,99.99
2017-10-06T03:47:21.618Z,99.99
2017-10-06T03:48:21.714Z,99.99
2017-10-06T03:49:21.205Z,99.99
2017-10-06T03:50:21.799Z,99.99
2017-10-06T03:51:21.268Z,99.99
2017-10-06T03:52:21.816Z,99.99
2017-10-06T03:53:21.850Z,99.99
2017-10-06T03:54:22.053Z,99.99
2017-10-06T03:55:21.943Z,99.99
2017-10-06T03:56:22.032Z,99.99
2017-10-06T03:57:22.150Z,99.99
2017-10-06T03:58:22.155Z,99.99
2017-10-06T03:59:21.951Z,99.99
2017-10-06T04:00:21.952Z,99.99
2017-10-06T04:01:21.780Z,99.99
2017-10-06T04:02:21.885Z,99.99
2017-10-06T04:03:22.277Z,99.99
2017-10-06T04:04:22.018Z,99.99
2017-10-06T04:05:21.816Z,99.99
2017-10-06T04:06:22.246Z,99.99
2017-10-06T04:07:21.955Z,99.99
2017-10-06T04:08:22.452Z,99.99
2017-10-06T04:09:22.303Z,99.99
2017-10-06T04:10:22.205Z,99.99
2017-10-06T04:11:22.178Z,99.99
2017-10-06T04:12:22.640Z,99.99
2017-10-06T04:13:22.475Z,99.99
2017-10-06T04:14:23.021Z,99.99
2017-10-06T04:15:22.452Z,99.99
2017-10-06T04:16:23.116Z,99.99
2017-10-06T04:17:22.940Z,99.99
2017-10-06T04:18:23.019Z,99.99
2017-10-06T04:19:23.068Z,99.99
2017-10-06T04:20:22.715Z,99.99
2017-10-06T04:21:23.153Z,99.99
2017-10-06T04:22:23.161Z,99.99
2017-10-06T04:23:23.212Z,99.99
2017-10-06T04:24:23.331Z,99.99
2017-10-06T04:25:23.418Z,99.99
2017-10-06T04:26:23.014Z,99.99
2017-10-06T04:27:23.540Z,99.99
2017-10-06T04:28:23.568Z,99.99
2017-10-06T04:29:23.819Z,99.99
2017-10-06T04:30:23.147Z,99.99
2017-10-06T04:31:23.123Z,99.99
2017-10-06T04:32:23.066Z,99.99
2017-10-06T04:33:23.276Z,99.99
2017-10-06T04:34:23.492Z,99.99
2017-10-06T04:35:23.436Z,99.99
2017-10-06T04:36:23.605Z,99.99
2017-10-06T04:37:23.543Z,99.99
2017-10-06T04:38:23.384Z,99.99
2017-10-06T04:39:23.938Z,99.99
2017-10-06T04:40:23.791Z,99.99
2017-10-06T04:41:23.557Z,99.99
2017-10-06T04:42:23.678Z,99.99
2017-10-06T04:43:23.590Z,99.99
2017-10-06T04:44:24.034Z,99.99
2017-10-06T04:45:23.770Z,99.99
2017-10-06T04:46:23.711Z,99.99
2017-10-06T04:47:24.028Z,99.99
2017-10-06T04:48:23.838Z,99.99
2017-10-06T04:49:24.389Z,99.99
2017-10-06T04:50:24.136Z,99.99
2017-10-06T04:51:24.336Z,99.99
2017-10-06T04:52:24.429Z,99.99
2017-10-06T04:53:24.355Z,99.99
2017-10-06T04:54:24.215Z,99.99
2017-10-06T04:55:24.170Z,99.99
2017-10-06T04:56:24.350Z,99.99
2017-10-06T04:57:24.264Z,99.99
2017-10-06T04:58:24.929Z,99.99
2017-10-06T04:59:25.298Z,99.99
2017-10-06T05:00:24.669Z,99.99
2017-10-06T05:01:25.175Z,99.99
2017-10-06T05:02:24.484Z,99.99
2017-10-06T05:03:24.584Z,99.99
2017-10-06T05:04:24.618Z,99.99
2017-10-06T05:05:25.054Z,99.99
2017-10-06T05:06:25.069Z,99.99
2017-10-06T05:07:24.948Z,99.99
2017-10-06T05:08:25.127Z,99.99
2017-10-06T05:09:24.774Z,99.99
2017-10-06T05:10:25.489Z,99.99
2017-10-06T05:11:25.129Z,99.99
2017-10-06T05:12:25.134Z,99.99
2017-10-06T05:13:25.518Z,99.99
2017-10-06T05:14:25.696Z,99.99
2017-10-06T05:15:25.104Z,99.99
2017-10-06T05:16:25.425Z,99.99
2017-10-06T05:17:25.253Z,99.99
2017-10-06T05:18:25.435Z,99.99
2017-10-06T05:19:25.858Z,99.99
2017-10-06T05:20:25.290Z,99.99
2017-10-06T05:21:25.258Z,99.99
2017-10-06T05:22:25.618Z,99.99
2017-10-06T05:23:25.460Z,99.99
2017-10-06T05:24:25.885Z,99.99
2017-10-06T05:25:26.038Z,99.99
2017-10-06T05:26:26.082Z,99.99
2017-10-06T05:27:25.654Z,99.99
2017-10-06T05:28:25.929Z,99.99
2017-10-06T05:29:25.967Z,99.99
2017-10-06T05:30:25.770Z,99.99
2017-10-06T05:31:26.024Z,99.99
2017-10-06T05:32:26.102Z,99.99
2017-10-06T05:33:25.717Z,99.99
2017-10-06T05:34:25.759Z,99.99
2017-10-06T05:35:26.629Z,99.99
2017-10-06T05:36:27.203Z,99.99
2017-10-06T05:37:26.844Z,99.99
2017-10-06T05:38:26.841Z,99.99
2017-10-06T05:39:26.920Z,99.99
2017-10-06T05:40:27.003Z,99.99
2017-10-06T05:41:26.891Z,99.99
2017-10-06T05:42:27.189Z,99.99
2017-10-06T05:43:27.039Z,99.99
2017-10-06T05:44:27.102Z,99.99
2017-10-06T05:45:26.849Z,99.99
2017-10-06T05:46:27.127Z,99.99
2017-10-06T05:47:27.290Z,99.99
2017-10-06T05:48:26.936Z,99.99
2017-10-06T05:49:27.553Z,99.99
2017-10-06T05:50:27.419Z,99.99
2017-10-06T05:51:27.381Z,99.99
2017-10-06T05:52:27.623Z,99.99
2017-10-06T05:53:27.583Z,99.99
2017-10-06T05:54:26.954Z,99.99
2017-10-06T05:55:27.623Z,99.99
2017-10-06T05:56:27.638Z,99.99
2017-10-06T05:57:27.743Z,99.99
2017-10-06T05:58:27.666Z,99.99
2017-10-06T05:59:27.553Z,99.99
2017-10-06T06:00:27.510Z,99.99
2017-10-06T06:01:29.737Z,99.99
2017-10-06T06:02:28.009Z,99.99
2017-10-06T06:03:28.064Z,99.99
2017-10-06T06:04:27.541Z,99.99
2017-10-06T06:05:27.768Z,99.99
2017-10-06T06:06:27.951Z,99.99
2017-10-06T06:07:28.009Z,99.99
2017-10-06T06:08:28.405Z,99.99
2017-10-06T06:09:28.166Z,99.99
2017-10-06T06:10:28.289Z,99.99
2017-10-06T06:11:28.436Z,99.99
2017-10-06T06:12:28.316Z,99.99
2017-10-06T06:13:28.440Z,99.99
2017-10-06T06:14:28.442Z,99.99
2017-10-06T06:15:28.498Z,99.99
2017-10-06T06:16:28.702Z,99.99
2017-10-06T06:17:28.584Z,99.99
2017-10-06T06:18:28.663Z,99.99
2017-10-06T06:19:28.238Z,99.99
2017-10-06T06:20:29.363Z,99.99
2017-10-06T06:21:28.879Z,99.99
2017-10-06T06:22:28.791Z,99.99
2017-10-06T06:23:29.029Z,99.99
2017-10-06T06:24:28.845Z,99.99
2017-10-06T06:25:29.124Z,99.99
2017-10-06T06:26:28.629Z,99.99
2017-10-06T06:27:29.385Z,99.99
2017-10-06T06:28:29.177Z,99.99
2017-10-06T06:29:29.291Z,99.99
2017-10-06T06:30:29.145Z,99.99
2017-10-06T06:31:29.489Z,99.99
2017-10-06T06:32:29.406Z,99.99
2017-10-06T06:33:29.495Z,99.99
2017-10-06T06:34:29.309Z,99.99
2017-10-06T06:35:29.432Z,99.99
2017-10-06T06:36:29.054Z,99.99
2017-10-06T06:37:29.311Z,99.99
2017-10-06T06:38:29.342Z,99.99
2017-10-06T06:39:29.570Z,99.99
2017-10-06T06:40:29.756Z,99.99
2017-10-06T06:41:29.775Z,99.99
2017-10-06T06:42:29.759Z,99.99
2017-10-06T06:43:29.527Z,99.99
2017-10-06T06:44:29.868Z,99.99
2017-10-06T06:45:30.035Z,99.99
2017-10-06T06:46:30.068Z,99.99
2017-10-06T06:47:29.746Z,99.99
2017-10-06T06:48:30.158Z,99.99
2017-10-06T06:49:30.390Z,99.99
2017-10-06T06:50:30.216Z,99.99
2017-10-06T06:51:30.232Z,99.99
2017-10-06T06:52:30.151Z,99.99
2017-10-06T06:53:29.928Z,99.99
2017-10-06T06:54:30.449Z,99.99
2017-10-06T06:55:30.312Z,99.99
2017-10-06T06:56:30.005Z,99.99
2017-10-06T06:57:30.167Z,99.99
2017-10-06T06:58:30.585Z,99.99
2017-10-06T06:59:30.545Z,99.99
2017-10-06T07:00:30.659Z,99.99
2017-10-06T07:01:30.818Z,99.99
2017-10-06T07:02:30.260Z,99.99
2017-10-06T07:03:30.170Z,99.99
2017-10-06T07:04:31.045Z,99.99
2017-10-06T07:05:30.236Z,99.99
2017-10-06T07:06:30.808Z,99.99
2017-10-06T07:07:30.769Z,99.99
2017-10-06T07:08:30.522Z,99.99
2017-10-06T07:09:30.460Z,99.99
2017-10-06T07:10:31.124Z,99.99
2017-10-06T07:11:31.290Z,99.99
2017-10-06T07:12:31.324Z,99.99
2017-10-06T07:13:30.996Z,99.99
2017-10-06T07:14:30.813Z,99.99
2017-10-06T07:15:30.836Z,99.99
2017-10-06T07:16:31.370Z,99.99
2017-10-06T07:17:31.043Z,99.99
2017-10-06T07:18:31.659Z,99.99
2017-10-06T07:19:31.074Z,99.99
2017-10-06T07:20:31.017Z,99.99
2017-10-06T07:21:31.535Z,99.99
2017-10-06T07:22:31.645Z,99.99
2017-10-06T07:23:31.440Z,99.99
2017-10-06T07:24:31.378Z,99.99
2017-10-06T07:25:31.149Z,98.90
2017-10-06T07:26:31.413Z,95.65
2017-10-06T07:27:31.515Z,89.86
2017-10-06T07:28:32.078Z,86.21
2017-10-06T07:29:31.738Z,84.68
2017-10-06T07:30:32.056Z,85.60
2017-10-06T07:31:31.546Z,87.37
2017-10-06T07:32:31.656Z,85.44
2017-10-06T07:33:31.984Z,81.08
2017-10-06T07:34:32.236Z,79.39
2017-10-06T07:35:31.711Z,79.72
2017-10-06T07:36:32.232Z,77.90
2017-10-06T07:37:31.922Z,74.98
2017-10-06T07:38:31.784Z,76.65
2017-10-06T07:39:32.266Z,74.31
2017-10-06T07:40:31.940Z,74.98
2017-10-06T07:41:32.033Z,73.30
2017-10-06T07:42:32.544Z,75.35
2017-10-06T07:43:32.232Z,74.96
2017-10-06T07:44:32.248Z,74.52
2017-10-06T07:45:32.852Z,73.27
2017-10-06T07:46:32.914Z,74.46
2017-10-06T07:47:32.808Z,71.64
2017-10-06T07:48:33.144Z,72.47
2017-10-06T07:49:32.391Z,73.41
2017-10-06T07:50:32.345Z,71.64
2017-10-06T07:51:32.593Z,70.39
2017-10-06T07:52:32.576Z,73.18
2017-10-06T07:53:32.999Z,73.37
2017-10-06T07:54:32.656Z,71.70
2017-10-06T07:55:33.122Z,71.03
2017-10-06T07:56:33.158Z,70.74
2017-10-06T07:57:32.799Z,74.68
2017-10-06T07:58:33.460Z,71.03
2017-10-06T07:59:33.414Z,71.93
2017-10-06T08:00:33.058Z,72.22
2017-10-06T08:01:33.582Z,73.69
2017-10-06T08:02:33.707Z,75.32
2017-10-06T08:03:33.685Z,72.83
2017-10-06T08:04:33.468Z,71.03
2017-10-06T08:05:33.530Z,69.49
2017-10-06T08:06:33.271Z,70.10
2017-10-06T08:07:33.236Z,71.64
2017-10-06T08:08:33.465Z,70.55
2017-10-06T08:09:33.362Z,70.55
2017-10-06T08:10:33.382Z,70.93
2017-10-06T08:11:33.568Z,72.22
2017-10-06T08:12:33.749Z,72.02
2017-10-06T08:13:33.710Z,71.45
2017-10-06T08:14:33.913Z,70.23
2017-10-06T08:15:33.634Z,72.72
2017-10-06T08:16:33.765Z,70.74
2017-10-06T08:17:33.831Z,71.93
2017-10-06T08:18:34.108Z,68.53
2017-10-06T08:19:34.485Z,71.64
2017-10-06T08:20:33.889Z,71.93
2017-10-06T08:21:34.123Z,71.58
2017-10-06T08:22:34.030Z,66.68
2017-10-06T08:23:34.291Z,65.56
2017-10-06T08:24:34.371Z,62.29
2017-10-06T08:25:34.452Z,59.60
2017-10-06T08:26:34.335Z,65.27
2017-10-06T08:27:34.709Z,67.96
2017-10-06T08:28:34.383Z,64.98
2017-10-06T08:29:34.684Z,61.01
2017-10-06T08:30:34.561Z,61.43
2017-10-06T08:31:34.736Z,62.87
2017-10-06T08:32:34.623Z,62.80
2017-10-06T08:33:35.049Z,65.01
2017-10-06T08:34:35.328Z,57.51
2017-10-06T08:35:35.227Z,56.07
2017-10-06T08:36:34.839Z,54.85
2017-10-06T08:37:34.872Z,53.28
2017-10-06T08:38:34.956Z,53.13
2017-10-06T08:39:35.035Z,57.71
2017-10-06T08:40:35.607Z,59.00
2017-10-06T08:41:35.004Z,62.90
2017-10-06T08:42:35.196Z,64.59
2017-10-06T08:43:35.597Z,66.77
2017-10-06T08:44:35.151Z,67.44
2017-10-06T08:45:35.502Z,67.69
2017-10-06T08:46:35.650Z,64.92
2017-10-06T08:47:35.922Z,72.00
2017-10-06T08:48:35.384Z,78.70
2017-10-06T08:49:35.830Z,80.87
2017-10-06T08:50:35.873Z,80.10
2017-10-06T08:51:35.674Z,81.34
2017-10-06T08:52:36.260Z,78.53
2017-10-06T08:53:35.895Z,74.80
2017-10-06T08:54:36.072Z,75.18
2017-10-06T08:55:36.041Z,79.96
2017-10-06T08:56:36.101Z,79.68
2017-10-06T08:57:36.074Z,79.49
2017-10-06T08:58:36.078Z,76.90
2017-10-06T08:59:35.952Z,78.86
2017-10-06T09:00:36.805Z,74.93
2017-10-06T09:01:36.335Z,74.40
2017-10-06T09:02:36.164Z,72.73
2017-10-06T09:03:36.107Z,71.68
2017-10-06T09:04:36.220Z,72.73
2017-10-06T09:05:36.387Z,76.27
2017-10-06T09:06:36.539Z,73.55
2017-10-06T09:07:36.300Z,74.99
2017-10-06T09:08:36.629Z,75.18
2017-10-06T09:09:37.280Z,77.57
2017-10-06T09:10:36.585Z,81.30
2017-10-06T09:11:36.839Z,81.02
2017-10-06T09:12:36.715Z,78.14
2017-10-06T09:13:36.749Z,75.18
2017-10-06T09:14:36.692Z,75.37
2017-10-06T09:15:36.966Z,80.16
2017-10-06T09:16:37.243Z,79.73
2017-10-06T09:17:37.158Z,80.69
2017-10-06T09:18:37.258Z,82.89
2017-10-06T09:19:37.010Z,84.13
2017-10-06T09:20:37.423Z,82.51
2017-10-06T09:21:37.263Z,84.13
2017-10-06T09:22:37.158Z,76.39
2017-10-06T09:23:37.133Z,77.30
2017-10-06T09:24:37.302Z,79.69
2017-10-06T09:25:37.779Z,79.31
2017-10-06T09:26:37.454Z,85.81
2017-10-06T09:27:37.358Z,89.30
2017-10-06T09:28:37.776Z,88.34
2017-10-06T09:29:38.023Z,89.68
2017-10-06T09:30:37.850Z,90.92
2017-10-06T09:31:37.889Z,91.11
2017-10-06T09:32:38.198Z,89.49
2017-10-06T09:33:37.600Z,91.02
2017-10-06T09:34:38.399Z,87.58
2017-10-06T09:35:37.792Z,83.18
2017-10-06T09:36:38.308Z,84.05
2017-10-06T09:37:38.179Z,86.05
2017-10-06T09:38:38.197Z,90.92
2017-10-06T09:39:37.976Z,92.97
2017-10-06T09:40:38.627Z,95.46
2017-10-06T09:41:38.518Z,97.75
2017-10-06T09:42:38.601Z,96.61
2017-10-06T09:43:38.809Z,94.98
2017-10-06T09:44:38.953Z,94.60
2017-10-06T09:45:38.988Z,94.89
2017-10-06T09:46:38.385Z,99.28
2017-10-06T09:47:38.411Z,96.98
2017-10-06T09:48:38.425Z,96.98
2017-10-06T09:49:38.498Z,98.47
2017-10-06T09:50:39.045Z,99.99
2017-10-06T09:51:38.632Z,98.85
2017-10-06T09:52:39.063Z,99.71
2017-10-06T09:53:38.611Z,99.71
2017-10-06T09:54:38.653Z,99.99
2017-10-06T09:55:38.726Z,99.99
2017-10-06T09:56:39.305Z,99.61
2017-10-06T09:57:39.210Z,99.99
2017-10-06T09:58:39.462Z,99.99
2017-10-06T09:59:38.949Z,99.99
2017-10-06T10:00:39.624Z,99.99
2017-10-06T10:01:39.596Z,99.99
2017-10-06T10:02:39.437Z,99.99
2017-10-06T10:03:39.793Z,99.99
2017-10-06T10:04:39.307Z,99.99
2017-10-06T10:05:39.425Z,99.99
2017-10-06T10:06:39.291Z,99.99
2017-10-06T10:07:39.347Z,99.99
2017-10-06T10:08:39.470Z,99.04
2017-10-06T10:09:39.456Z,97.99
2017-10-06T10:10:39.545Z,98.18
2017-10-06T10:11:40.170Z,98.94
2017-10-06T10:12:40.025Z,99.42
2017-10-06T10:13:39.977Z,97.13
2017-10-06T10:14:39.780Z,97.61
2017-10-06T10:15:40.070Z,94.93
2017-10-06T10:16:40.483Z,95.89
2017-10-06T10:17:39.745Z,95.03
2017-10-06T10:18:40.469Z,96.17
2017-10-06T10:19:40.386Z,95.22
2017-10-06T10:20:40.793Z,95.32
2017-10-06T10:21:40.705Z,96.27
2017-10-06T10:22:40.701Z,96.75
2017-10-06T10:23:40.724Z,96.46
2017-10-06T10:24:40.138Z,96.75
2017-10-06T10:25:40.586Z,99.13
2017-10-06T10:26:40.533Z,97.13
2017-10-06T10:27:40.429Z,94.93
2017-10-06T10:28:40.960Z,96.37
2017-10-06T10:29:40.845Z,96.46
2017-10-06T10:30:40.940Z,97.03
2017-10-06T10:31:40.938Z,96.08
2017-10-06T10:32:40.522Z,94.93
2017-10-06T10:33:41.074Z,95.41
2017-10-06T10:34:40.387Z,95.89
2017-10-06T10:35:41.284Z,95.41
2017-10-06T10:36:41.362Z,95.75
2017-10-06T10:37:41.205Z,97.56
2017-10-06T10:38:41.366Z,96.61
2017-10-06T10:39:41.533Z,93.74
2017-10-06T10:40:41.544Z,93.74
2017-10-06T10:41:41.630Z,93.88
2017-10-06T10:42:41.695Z,91.83
2017-10-06T10:43:41.692Z,91.78
2017-10-06T10:44:42.236Z,90.45
2017-10-06T10:45:42.626Z,91.02
2017-10-06T10:46:41.874Z,91.98
2017-10-06T10:47:41.916Z,92.74
2017-10-06T10:48:41.851Z,92.74
2017-10-06T10:49:41.898Z,92.26
2017-10-06T10:50:42.003Z,93.22
2017-10-06T10:51:42.024Z,92.46
2017-10-06T10:52:42.016Z,94.46
2017-10-06T10:53:41.536Z,96.22
2017-10-06T10:54:41.816Z,93.70
2017-10-06T10:55:42.078Z,90.83
2017-10-06T10:56:41.824Z,90.93
2017-10-06T10:57:42.303Z,89.59
2017-10-06T10:58:41.981Z,92.17
2017-10-06T10:59:42.060Z,92.93
2017-10-06T11:00:42.141Z,91.78
2017-10-06T11:01:42.246Z,93.12
2017-10-06T11:02:42.167Z,93.12
2017-10-06T11:03:42.220Z,93.88
2017-10-06T11:04:42.704Z,93.41
2017-10-06T11:05:42.713Z,94.27
2017-10-06T11:06:42.344Z,94.36
2017-10-06T11:07:42.330Z,93.74
2017-10-06T11:08:42.621Z,96.13
2017-10-06T11:09:42.593Z,95.75
2017-10-06T11:10:43.040Z,98.42
2017-10-06T11:11:42.620Z,98.99
2017-10-06T11:12:42.484Z,99.18
2017-10-06T11:13:42.907Z,97.80
2017-10-06T11:14:42.732Z,97.70
2017-10-06T11:15:43.162Z,96.80
2017-10-06T11:16:42.959Z,98.08
2017-10-06T11:17:42.742Z,98.61
2017-10-06T11:18:42.743Z,99.99
2017-10-06T11:19:43.222Z,98.03
2017-10-06T11:20:43.102Z,97.94
2017-10-06T11:21:43.027Z,97.17
2017-10-06T11:22:43.028Z,99.99
2017-10-06T11:23:43.051Z,99.99
2017-10-06T11:24:43.564Z,99.99
2017-10-06T11:25:43.512Z,99.37
2017-10-06T11:26:43.082Z,99.37
2017-10-06T11:27:43.361Z,99.18
2017-10-06T11:28:43.210Z,99.66
2017-10-06T11:29:43.254Z,99.18
2017-10-06T11:30:43.616Z,97.17
2017-10-06T11:31:43.570Z,96.89
2017-10-06T11:32:43.526Z,96.32
2017-10-06T11:33:43.504Z,99.08
2017-10-06T11:34:43.479Z,99.99
2017-10-06T11:35:43.574Z,99.13
2017-10-06T11:36:43.660Z,98.27
2017-10-06T11:37:43.678Z,98.56
2017-10-06T11:38:43.788Z,97.71
2017-10-06T11:39:43.805Z,94.36
2017-10-06T11:40:44.149Z,94.74
2017-10-06T11:41:43.890Z,96.37
2017-10-06T11:42:43.927Z,95.65
2017-10-06T11:43:44.504Z,94.51
2017-10-06T11:44:43.967Z,95.08
2017-10-06T11:45:44.648Z,94.79
2017-10-06T11:46:44.276Z,94.51
2017-10-06T11:47:44.110Z,92.31
2017-10-06T11:48:44.341Z,90.40
2017-10-06T11:49:44.769Z,93.12
2017-10-06T11:50:44.266Z,90.73
2017-10-06T11:51:44.562Z,90.83
2017-10-06T11:52:44.463Z,90.83
2017-10-06T11:53:45.185Z,89.01
2017-10-06T11:54:44.853Z,90.16
2017-10-06T11:55:44.818Z,90.25
2017-10-06T11:56:44.655Z,89.78
2017-10-06T11:57:44.614Z,88.92
2017-10-06T11:58:45.281Z,91.78
2017-10-06T11:59:44.769Z,90.73
2017-10-06T12:00:45.030Z,90.73
2017-10-06T12:01:45.180Z,88.92
2017-10-06T12:02:45.012Z,89.11
2017-10-06T12:03:45.122Z,92.07
2017-10-06T12:04:45.275Z,91.69
2017-10-06T12:05:45.091Z,93.60
2017-10-06T12:06:45.211Z,92.64
2017-10-06T12:07:45.627Z,90.73
2017-10-06T12:08:45.290Z,91.50
2017-10-06T12:09:45.762Z,91.30
2017-10-06T12:10:45.756Z,89.97
2017-10-06T12:11:45.437Z,88.92
2017-10-06T12:12:45.651Z,89.92
2017-10-06T12:13:45.891Z,90.02
2017-10-06T12:14:45.517Z,89.83
2017-10-06T12:15:45.713Z,90.02
2017-10-06T12:16:45.673Z,92.97
2017-10-06T12:17:45.802Z,91.26
2017-10-06T12:18:45.862Z,92.21
2017-10-06T12:19:45.871Z,93.65
2017-10-06T12:20:46.148Z,90.78
2017-10-06T12:21:45.888Z,91.74
2017-10-06T12:22:46.165Z,88.87
2017-10-06T12:23:46.077Z,91.93
2017-10-06T12:24:45.972Z,93.07
2017-10-06T12:25:46.101Z,91.64
2017-10-06T12:26:46.721Z,92.88
2017-10-06T12:27:46.701Z,91.74
2017-10-06T12:28:47.143Z,91.93
2017-10-06T12:29:46.476Z,91.93
2017-10-06T12:30:46.183Z,91.26
2017-10-06T12:31:46.288Z,91.64
2017-10-06T12:32:46.430Z,92.97
2017-10-06T12:33:46.504Z,92.02
2017-10-06T12:34:46.529Z,90.69
2017-10-06T12:35:46.775Z,90.54
2017-10-06T12:36:46.943Z,89.54
2017-10-06T12:37:46.847Z,87.68
2017-10-06T12:38:47.185Z,87.73
2017-10-06T12:39:47.068Z,82.67
2017-10-06T12:40:46.833Z,85.63
2017-10-06T12:41:46.888Z,85.63
2017-10-06T12:42:47.112Z,82.00
2017-10-06T12:43:47.047Z,85.53
2017-10-06T12:44:47.002Z,88.97
2017-10-06T12:45:47.306Z,89.25
2017-10-06T12:46:47.647Z,88.87
2017-10-06T12:47:47.659Z,87.06
2017-10-06T12:48:47.864Z,88.40
2017-10-06T12:49:47.616Z,88.59
2017-10-06T12:50:47.824Z,88.11
2017-10-06T12:51:47.269Z,87.92
2017-10-06T12:52:47.433Z,87.25